createdAt,value
2023-03-19T00:00:06.900Z,515.00
2023-03-19T00:01:06.882Z,512.00
2023-03-19T00:02:17.127Z,515.00
2023-03-19T00:03:07.939Z,513.00
2023-03-19T00:04:06.869Z,514.00
2023-03-19T00:05:06.863Z,515.00
2023-03-19T00:06:06.846Z,513.00
2023-03-19T00:07:06.843Z,513.00
2023-03-19T00:08:06.849Z,514.00
2023-03-19T00:09:06.831Z,513.00
2023-03-19T00:10:06.828Z,514.00
2023-03-19T00:11:06.820Z,512.00
2023-03-19T00:12:06.810Z,515.00
2023-03-19T00:13:06.809Z,517.00
2023-03-19T00:14:06.811Z,518.00
2023-03-19T00:15:06.804Z,519.00
2023-03-19T00:16:06.858Z,518.00
2023-03-19T00:17:06.790Z,517.00
2023-03-19T00:18:06.780Z,520.00
2023-03-19T00:19:06.772Z,518.00
2023-03-19T00:20:06.769Z,516.00
2023-03-19T00:21:06.760Z,514.00
2023-03-19T00:22:06.753Z,516.00
2023-03-19T00:23:06.752Z,515.00
2023-03-19T00:24:06.755Z,515.00
2023-03-19T00:25:06.756Z,515.00
2023-03-19T00:26:06.787Z,515.00
2023-03-19T00:27:06.810Z,515.00
2023-03-19T00:28:06.828Z,517.00
2023-03-19T00:29:07.340Z,520.00
2023-03-19T00:30:06.873Z,517.00
2023-03-19T00:31:06.959Z,512.00
2023-03-19T00:32:06.908Z,514.00
2023-03-19T00:33:07.000Z,513.00
2023-03-19T00:34:07.834Z,512.00
2023-03-19T00:35:06.968Z,514.00
2023-03-19T00:36:07.020Z,520.00
2023-03-19T00:37:07.007Z,522.00
2023-03-19T00:38:07.023Z,522.00
2023-03-19T00:39:07.044Z,523.00
2023-03-19T00:40:07.075Z,526.00
2023-03-19T00:41:07.082Z,526.00
2023-03-19T00:42:07.109Z,526.00
2023-03-19T00:43:07.123Z,526.00
2023-03-19T00:44:07.149Z,524.00
2023-03-19T00:45:07.183Z,525.00
2023-03-19T00:46:07.235Z,524.00
2023-03-19T00:47:07.237Z,525.00
2023-03-19T00:48:07.222Z,525.00
2023-03-19T00:49:07.248Z,526.00
2023-03-19T00:50:07.274Z,524.00
2023-03-19T00:51:07.295Z,524.00
2023-03-19T00:52:07.313Z,521.00
2023-03-19T00:53:07.349Z,520.00
2023-03-19T00:54:07.361Z,519.00
2023-03-19T00:55:07.409Z,520.00
2023-03-19T00:56:07.408Z,520.00
2023-03-19T00:57:07.425Z,518.00
2023-03-19T00:58:07.448Z,519.00
2023-03-19T00:59:07.469Z,517.00
2023-03-19T01:00:07.495Z,519.00
2023-03-19T01:01:07.537Z,520.00
2023-03-19T01:02:07.537Z,520.00
2023-03-19T01:03:07.543Z,519.00
2023-03-19T01:04:07.596Z,517.00
2023-03-19T01:05:07.588Z,517.00
2023-03-19T01:06:07.611Z,517.00
2023-03-19T01:07:07.627Z,515.00
2023-03-19T01:16:07.792Z,515.00
2023-03-19T01:17:07.806Z,512.00
2023-03-19T01:18:08.354Z,511.00
2023-03-19T01:19:07.842Z,513.00
2023-03-19T01:20:08.341Z,514.00
2023-03-19T01:21:07.876Z,512.00
2023-03-19T01:22:07.912Z,509.00
2023-03-19T01:23:07.935Z,508.00
2023-03-19T01:24:07.935Z,505.00
2023-03-19T01:25:07.964Z,507.00
2023-03-19T01:26:07.982Z,507.00
2023-03-19T01:27:08.003Z,508.00
2023-03-19T01:28:08.028Z,508.00
2023-03-19T01:29:08.075Z,506.00
2023-03-19T01:30:08.060Z,505.00
2023-03-19T01:31:08.095Z,506.00
2023-03-19T01:32:08.088Z,505.00
2023-03-19T01:33:08.283Z,503.00
2023-03-19T01:34:08.144Z,502.00
2023-03-19T01:35:08.160Z,505.00
2023-03-19T01:36:08.214Z,505.00
2023-03-19T01:37:08.200Z,505.00
2023-03-19T01:38:08.208Z,506.00
2023-03-19T01:39:08.231Z,505.00
2023-03-19T01:40:08.239Z,506.00
2023-03-19T01:41:08.273Z,505.00
2023-03-19T01:42:08.285Z,506.00
2023-03-19T01:43:08.305Z,505.00
2023-03-19T01:44:08.853Z,504.00
2023-03-19T01:45:08.340Z,503.00
2023-03-19T01:46:08.425Z,503.00
2023-03-19T01:47:08.379Z,503.00
2023-03-19T01:48:08.396Z,503.00
2023-03-19T01:49:08.425Z,503.00
2023-03-19T01:50:08.437Z,502.00
2023-03-19T01:51:08.459Z,504.00
2023-03-19T01:52:09.360Z,505.00
2023-03-19T01:53:09.739Z,505.00
2023-03-19T01:54:08.496Z,504.00
2023-03-19T01:55:08.494Z,505.00
2023-03-19T01:56:08.491Z,510.00
2023-03-19T01:57:08.483Z,509.00
2023-03-19T01:58:08.471Z,508.00
2023-03-19T01:59:08.460Z,509.00
2023-03-19T02:00:08.457Z,508.00
2023-03-19T02:01:08.460Z,508.00
2023-03-19T02:02:08.439Z,509.00
2023-03-19T02:03:08.439Z,508.00
2023-03-19T02:04:08.465Z,509.00
2023-03-19T02:05:08.873Z,509.00
2023-03-19T02:06:08.430Z,509.00
2023-03-19T02:07:08.412Z,509.00
2023-03-19T02:08:08.410Z,507.00
2023-03-19T02:09:08.395Z,511.00
2023-03-19T02:10:08.409Z,510.00
2023-03-19T02:11:08.396Z,511.00
2023-03-19T02:12:08.385Z,511.00
2023-03-19T02:13:08.413Z,509.00
2023-03-19T02:14:08.362Z,511.00
2023-03-19T02:15:08.356Z,512.00
2023-03-19T02:43:08.153Z,513.00
2023-03-19T02:44:08.147Z,515.00
2023-03-19T02:45:08.130Z,514.00
2023-03-19T02:46:08.416Z,513.00
2023-03-19T02:47:08.126Z,514.00
2023-03-19T02:48:08.122Z,512.00
2023-03-19T02:49:08.122Z,511.00
2023-03-19T02:50:08.100Z,508.00
2023-03-19T02:51:08.083Z,508.00
2023-03-19T02:52:08.092Z,507.00
2023-03-19T02:53:08.089Z,507.00
2023-03-19T02:54:08.073Z,505.00
2023-03-19T02:55:08.136Z,504.00
2023-03-19T04:03:08.890Z,502.00
2023-03-19T04:04:08.832Z,502.00
2023-03-19T04:05:08.844Z,500.00
2023-03-19T04:06:08.872Z,497.00
2023-03-19T04:07:08.879Z,499.00
2023-03-19T06:45:13.476Z,501.00
2023-03-19T06:55:13.475Z,500.00
2023-03-19T07:06:14.028Z,500.00
2023-03-19T07:10:14.072Z,498.00
2023-03-19T07:34:13.177Z,493.00
2023-03-19T07:35:13.221Z,494.00
2023-03-19T07:36:14.010Z,495.00
2023-03-19T07:37:13.297Z,494.00
2023-03-19T07:38:13.325Z,496.00
2023-03-19T07:39:13.445Z,499.00
2023-03-19T07:40:13.433Z,496.00
2023-03-19T07:41:13.478Z,496.00
2023-03-19T07:42:13.539Z,498.00
2023-03-19T07:43:13.595Z,502.00
2023-03-19T07:44:13.662Z,502.00
2023-03-19T07:45:13.725Z,499.00
2023-03-19T07:46:13.784Z,499.00
2023-03-19T07:47:27.936Z,499.00
2023-03-19T07:48:14.881Z,499.00
2023-03-19T07:49:14.578Z,499.00
2023-03-19T07:50:13.812Z,503.00
2023-03-19T07:51:13.807Z,501.00
2023-03-19T07:52:13.798Z,502.00
2023-03-19T07:53:13.776Z,501.00
2023-03-19T07:54:13.789Z,502.00
2023-03-19T07:55:13.777Z,504.00
2023-03-19T07:56:13.768Z,505.00
2023-03-19T07:57:13.765Z,503.00
2023-03-19T07:58:13.755Z,503.00
2023-03-19T07:59:13.764Z,505.00
2023-03-19T08:00:13.760Z,503.00
2023-03-19T08:01:13.999Z,501.00
2023-03-19T08:02:13.753Z,499.00
2023-03-19T08:03:13.717Z,500.00
2023-03-19T08:04:13.742Z,501.00
2023-03-19T08:05:13.707Z,501.00
2023-03-19T08:06:13.836Z,501.00
2023-03-19T08:07:13.811Z,501.00
2023-03-19T08:08:13.839Z,504.00
2023-03-19T08:09:13.869Z,504.00
2023-03-19T08:10:13.864Z,504.00
2023-03-19T08:11:14.012Z,504.00
2023-03-19T08:12:13.929Z,506.00
2023-03-19T08:13:13.958Z,509.00
2023-03-19T08:14:14.508Z,509.00
2023-03-19T08:15:14.033Z,511.00
2023-03-19T08:16:14.032Z,510.00
2023-03-19T08:17:14.031Z,511.00
2023-03-19T08:18:14.080Z,510.00
2023-03-19T08:19:14.130Z,510.00
2023-03-19T08:20:14.178Z,508.00
2023-03-19T08:21:14.209Z,506.00
2023-03-19T08:22:14.289Z,504.00
2023-03-19T08:23:14.285Z,503.00
2023-03-19T08:24:14.342Z,504.00
2023-03-19T08:25:14.383Z,504.00
2023-03-19T08:26:14.402Z,503.00
2023-03-19T08:27:14.414Z,505.00
2023-03-19T08:28:14.489Z,502.00
2023-03-19T08:29:14.497Z,499.00
2023-03-19T08:30:14.530Z,502.00
2023-03-19T08:31:14.596Z,501.00
2023-03-19T08:32:14.604Z,504.00
2023-03-19T08:33:14.704Z,504.00
2023-03-19T08:34:14.694Z,505.00
2023-03-19T08:35:14.722Z,504.00
2023-03-19T08:36:14.729Z,504.00
2023-03-19T08:37:14.736Z,505.00
2023-03-19T08:38:14.800Z,507.00
2023-03-19T08:39:14.844Z,506.00
2023-03-19T08:40:14.918Z,507.00
2023-03-19T08:41:14.946Z,508.00
2023-03-19T08:42:15.001Z,506.00
2023-03-19T08:43:15.034Z,507.00
2023-03-19T08:44:15.061Z,512.00
2023-03-19T08:45:15.107Z,516.00
2023-03-19T08:46:15.126Z,515.00
2023-03-19T08:47:15.139Z,515.00
2023-03-19T08:48:15.148Z,517.00
2023-03-19T08:49:15.164Z,516.00
2023-03-19T08:50:15.186Z,516.00
2023-03-19T08:51:15.171Z,514.00
2023-03-19T08:52:15.172Z,513.00
2023-03-19T08:53:15.202Z,513.00
2023-03-19T08:54:15.224Z,511.00
2023-03-19T08:55:15.239Z,514.00
2023-03-19T08:56:15.271Z,514.00
2023-03-19T08:57:15.310Z,513.00
2023-03-19T08:58:15.378Z,514.00
2023-03-19T08:59:15.362Z,512.00
2023-03-19T09:00:15.376Z,512.00
2023-03-19T09:01:15.384Z,511.00
2023-03-19T09:02:15.424Z,513.00
2023-03-19T09:03:15.477Z,513.00
2023-03-19T09:04:15.519Z,513.00
2023-03-19T09:05:15.516Z,514.00
2023-03-19T09:06:15.638Z,514.00
2023-03-19T09:07:15.616Z,513.00
2023-03-19T09:08:15.619Z,513.00
2023-03-19T09:09:15.601Z,514.00
2023-03-19T09:10:15.610Z,511.00
2023-03-19T09:11:15.630Z,510.00
2023-03-19T09:12:16.550Z,511.00
2023-03-19T09:13:15.635Z,512.00
2023-03-19T09:14:15.657Z,515.00
2023-03-19T09:15:15.781Z,515.00
2023-03-19T09:16:15.810Z,515.00
2023-03-19T09:17:15.821Z,515.00
2023-03-19T09:18:15.844Z,515.00
2023-03-19T09:19:15.885Z,513.00
2023-03-19T09:20:15.916Z,508.00
2023-03-19T09:21:15.934Z,511.00
2023-03-19T09:22:15.949Z,516.00
2023-03-19T09:23:15.976Z,516.00
2023-03-19T09:24:16.030Z,513.00
2023-03-19T09:25:16.081Z,512.00
2023-03-19T09:26:16.145Z,513.00
2023-03-19T09:27:16.170Z,517.00
2023-03-19T09:28:16.218Z,516.00
2023-03-19T09:29:16.215Z,519.00
2023-03-19T09:30:16.232Z,519.00
2023-03-19T09:31:16.380Z,518.00
2023-03-19T09:32:16.328Z,515.00
2023-03-19T09:33:16.463Z,512.00
2023-03-19T09:34:16.456Z,513.00
2023-03-19T09:35:16.493Z,514.00
2023-03-19T09:36:16.576Z,515.00
2023-03-19T09:37:16.564Z,516.00
2023-03-19T09:38:16.574Z,517.00
2023-03-19T09:39:16.574Z,514.00
2023-03-19T09:40:16.573Z,513.00
2023-03-19T09:41:16.582Z,513.00
2023-03-19T09:42:16.584Z,515.00
2023-03-19T09:43:16.610Z,516.00
2023-03-19T09:44:16.625Z,517.00
2023-03-19T09:45:16.668Z,517.00
2023-03-19T09:46:16.702Z,517.00
2023-03-19T09:47:16.709Z,515.00
2023-03-19T09:48:16.762Z,514.00
2023-03-19T09:49:16.793Z,513.00
2023-03-19T09:50:16.849Z,511.00
2023-03-19T09:51:16.902Z,509.00
2023-03-19T09:52:16.958Z,510.00
2023-03-19T09:53:17.020Z,509.00
2023-03-19T09:54:17.068Z,509.00
2023-03-19T09:55:17.133Z,508.00
2023-03-19T09:56:17.546Z,507.00
2023-03-19T09:57:17.240Z,509.00
2023-03-19T09:58:17.293Z,507.00
2023-03-19T09:59:17.367Z,508.00
2023-03-19T10:00:17.551Z,509.00
2023-03-19T10:01:17.519Z,509.00
2023-03-19T10:02:17.534Z,509.00
2023-03-19T10:03:17.600Z,509.00
2023-03-19T10:04:17.741Z,510.00
2023-03-19T10:05:18.565Z,507.00
2023-03-19T10:06:17.788Z,510.00
2023-03-19T10:07:17.841Z,508.00
2023-03-19T10:08:17.940Z,509.00
2023-03-19T10:09:17.964Z,509.00
2023-03-19T10:10:18.012Z,507.00
2023-03-19T10:11:18.059Z,508.00
2023-03-19T10:12:18.093Z,508.00
2023-03-19T10:13:18.180Z,508.00
2023-03-19T10:14:18.232Z,508.00
2023-03-19T10:15:18.278Z,508.00
2023-03-19T10:16:18.364Z,509.00
2023-03-19T10:17:18.406Z,506.00
2023-03-19T10:18:18.449Z,505.00
2023-03-19T10:19:18.524Z,504.00
2023-03-19T10:20:18.575Z,503.00
2023-03-19T10:21:18.630Z,502.00
2023-03-19T10:22:18.680Z,503.00
2023-03-19T10:23:18.814Z,503.00
2023-03-19T10:24:18.794Z,505.00
2023-03-19T10:25:18.840Z,505.00
2023-03-19T10:26:18.940Z,505.00
2023-03-19T10:27:18.962Z,507.00
2023-03-19T10:28:19.026Z,510.00
2023-03-19T10:29:19.073Z,513.00
2023-03-19T10:30:19.157Z,510.00
2023-03-19T10:31:19.325Z,510.00
2023-03-19T10:32:20.079Z,510.00
2023-03-19T10:33:19.362Z,510.00
2023-03-19T10:34:19.368Z,510.00
2023-03-19T10:35:19.417Z,508.00
2023-03-19T10:36:19.489Z,511.00
2023-03-19T10:38:19.549Z,509.00
2023-03-19T10:39:19.590Z,507.00
2023-03-19T10:40:19.629Z,506.00
2023-03-19T10:41:19.650Z,504.00
2023-03-19T10:42:19.690Z,504.00
2023-03-19T10:43:19.780Z,505.00
2023-03-19T10:44:19.721Z,507.00
2023-03-19T10:45:19.712Z,507.00
2023-03-19T10:46:19.718Z,504.00
2023-03-19T10:47:19.734Z,505.00
2023-03-19T13:16:23.187Z,504.00
2023-03-19T13:17:23.221Z,505.00
2023-03-19T13:18:23.269Z,507.00
2023-03-19T13:19:23.322Z,508.00
2023-03-19T13:20:23.348Z,507.00
2023-03-19T13:21:23.423Z,506.00
2023-03-19T13:22:23.436Z,505.00
2023-03-19T13:23:23.498Z,506.00
2023-03-19T13:24:23.519Z,504.00
2023-03-19T13:25:23.565Z,502.00
2023-03-19T13:26:23.609Z,501.00
2023-03-19T13:27:23.745Z,499.00
2023-03-19T13:28:23.712Z,502.00
2023-03-19T13:29:23.748Z,502.00
2023-03-19T13:30:23.804Z,501.00
2023-03-19T13:31:23.896Z,501.00
2023-03-19T13:32:23.909Z,497.00
2023-03-19T13:33:23.950Z,494.00
2023-03-19T13:34:24.001Z,495.00
2023-03-19T13:35:24.039Z,494.00
2023-03-19T13:36:24.146Z,493.00
2023-03-19T13:37:24.137Z,493.00
2023-03-19T13:38:24.183Z,492.00
2023-03-19T13:39:24.235Z,493.00
2023-03-19T13:40:24.281Z,493.00
2023-03-19T13:41:24.331Z,494.00
2023-03-19T13:42:24.373Z,497.00
2023-03-19T13:43:28.421Z,497.00
2023-03-19T13:44:24.420Z,498.00
2023-03-19T13:45:24.413Z,498.00
2023-03-19T13:46:24.599Z,498.00
2023-03-19T13:47:24.416Z,500.00
2023-03-19T13:48:25.073Z,501.00
2023-03-19T13:49:24.386Z,499.00
2023-03-19T13:50:24.455Z,499.00
2023-03-19T13:51:24.390Z,498.00
2023-03-19T13:52:24.378Z,499.00
2023-03-19T13:53:24.364Z,498.00
2023-03-19T13:54:24.366Z,500.00
2023-03-19T13:55:24.361Z,499.00
2023-03-19T13:58:24.330Z,503.00
2023-03-19T13:59:24.337Z,505.00
2023-03-19T14:00:24.369Z,503.00
2023-03-19T14:01:24.300Z,504.00
2023-03-19T14:02:24.332Z,504.00
2023-03-19T14:03:24.334Z,504.00
2023-03-19T14:04:24.401Z,505.00
2023-03-19T14:05:24.398Z,505.00
2023-03-19T14:06:24.490Z,507.00
2023-03-19T14:07:24.518Z,506.00
2023-03-19T14:08:24.568Z,505.00
2023-03-19T14:09:24.635Z,506.00
2023-03-19T14:10:24.700Z,505.00
2023-03-19T14:11:24.739Z,504.00
2023-03-19T14:12:24.798Z,504.00
2023-03-19T14:13:24.845Z,501.00
2023-03-19T14:14:24.859Z,500.00
2023-03-19T14:23:38.483Z,503.00
2023-03-19T14:25:25.131Z,501.00
2023-03-19T14:26:25.133Z,499.00
2023-03-19T14:27:25.138Z,499.00
2023-03-19T14:28:25.117Z,498.00
2023-03-19T14:29:25.103Z,498.00
2023-03-19T14:30:25.102Z,497.00
2023-03-19T14:31:25.115Z,493.00
2023-03-19T14:32:25.087Z,489.00
2023-03-19T14:33:25.090Z,489.00
2023-03-19T14:34:25.083Z,491.00
2023-03-19T14:57:24.909Z,493.00
2023-03-19T14:58:24.908Z,492.00
2023-03-19T14:59:24.894Z,489.00
2023-03-19T15:00:24.929Z,489.00
2023-03-19T15:01:24.972Z,487.00
2023-03-19T15:02:24.887Z,490.00
2023-03-19T15:03:24.883Z,490.00
2023-03-19T15:04:24.936Z,491.00
2023-03-19T15:05:24.869Z,493.00
2023-03-19T15:06:24.870Z,493.00
2023-03-19T15:07:24.870Z,494.00
2023-03-19T15:08:24.921Z,492.00
2023-03-19T15:09:24.882Z,492.00
2023-03-19T15:10:24.888Z,493.00
2023-03-19T15:11:24.910Z,492.00
2023-03-19T15:12:24.900Z,491.00
2023-03-19T15:13:24.916Z,490.00
2023-03-19T15:14:24.949Z,491.00
2023-03-19T15:15:24.955Z,491.00
2023-03-19T15:16:24.988Z,492.00
2023-03-19T15:17:24.968Z,490.00
2023-03-19T15:18:25.001Z,491.00
2023-03-19T15:19:25.020Z,488.00
2023-03-19T15:20:25.008Z,488.00
2023-03-19T15:21:25.034Z,488.00
2023-03-19T15:22:25.045Z,491.00
2023-03-19T15:23:27.701Z,492.00
2023-03-19T15:24:25.057Z,493.00
2023-03-19T15:25:25.045Z,493.00
2023-03-19T15:26:25.041Z,496.00
2023-03-19T15:27:25.047Z,496.00
2023-03-19T15:28:25.514Z,493.00
2023-03-19T15:29:25.336Z,493.00
2023-03-19T15:30:25.209Z,494.00
2023-03-19T15:31:33.668Z,494.00
2023-03-19T15:33:37.172Z,491.00
2023-03-19T15:35:24.996Z,491.00
2023-03-19T15:36:24.990Z,491.00
2023-03-19T15:38:24.965Z,493.00
2023-03-19T15:39:24.963Z,494.00
2023-03-19T15:40:24.952Z,494.00
2023-03-19T15:41:24.946Z,495.00
2023-03-19T15:42:24.942Z,493.00
2023-03-19T15:43:24.934Z,492.00
2023-03-19T15:44:24.930Z,491.00
2023-03-19T15:45:24.925Z,493.00
2023-03-19T15:46:24.933Z,494.00
2023-03-19T15:47:24.906Z,492.00
2023-03-19T15:48:24.905Z,492.00
2023-03-19T15:49:24.907Z,492.00
2023-03-19T15:50:24.893Z,493.00
2023-03-19T15:51:24.888Z,494.00
2023-03-19T15:52:24.884Z,493.00
2023-03-19T15:53:24.879Z,493.00
2023-03-19T15:54:24.858Z,494.00
2023-03-19T15:55:24.861Z,496.00
2023-03-19T15:56:24.847Z,496.00
2023-03-19T19:20:33.454Z,481.00
2023-03-19T19:21:33.223Z,481.00
2023-03-19T19:22:33.258Z,481.00
2023-03-19T19:23:33.411Z,478.00
2023-03-19T19:24:33.308Z,478.00
2023-03-19T19:25:33.339Z,478.00
2023-03-19T19:26:33.315Z,479.00
2023-03-19T19:27:33.338Z,477.00
2023-03-19T19:28:33.394Z,477.00
2023-03-19T19:29:33.348Z,478.00
2023-03-19T19:30:34.224Z,480.00
2023-03-19T19:31:33.464Z,481.00
2023-03-19T19:32:33.511Z,481.00
2023-03-19T19:33:33.453Z,483.00
2023-03-19T19:34:33.456Z,483.00
2023-03-19T19:35:33.514Z,483.00
2023-03-19T19:36:33.466Z,485.00
2023-03-19T19:37:33.478Z,485.00
2023-03-19T19:43:33.576Z,489.00
2023-03-19T19:44:33.575Z,488.00
2023-03-19T19:45:33.572Z,489.00
2023-03-19T19:46:33.650Z,488.00
2023-03-19T19:47:33.623Z,489.00
2023-03-19T19:48:33.560Z,488.00
2023-03-19T19:49:33.572Z,486.00
2023-03-19T19:50:33.817Z,486.00
2023-03-19T20:00:33.647Z,481.00
2023-03-19T20:01:33.854Z,481.00
2023-03-19T20:02:33.640Z,481.00
2023-03-19T20:03:33.775Z,483.00
2023-03-19T20:04:33.672Z,481.00
2023-03-19T20:05:33.888Z,479.00
2023-03-19T20:06:33.687Z,479.00
2023-03-19T20:07:33.677Z,479.00
2023-03-19T20:08:33.654Z,478.00
2023-03-19T20:09:33.653Z,478.00
2023-03-19T20:10:33.661Z,476.00
2023-03-19T20:11:33.652Z,475.00
2023-03-19T20:12:33.670Z,475.00
2023-03-19T20:13:33.663Z,477.00
2023-03-19T20:14:33.659Z,477.00
2023-03-19T20:15:34.042Z,476.00
2023-03-19T20:16:33.645Z,476.00
2023-03-19T20:17:33.652Z,476.00
2023-03-19T20:18:33.640Z,478.00
2023-03-19T20:19:33.729Z,478.00
2023-03-19T20:20:33.677Z,480.00
2023-03-19T20:21:33.742Z,481.00
2023-03-19T20:22:33.677Z,480.00
2023-03-19T20:23:33.666Z,480.00
2023-03-19T20:24:33.679Z,480.00
2023-03-19T20:25:34.092Z,481.00
2023-03-19T20:26:33.660Z,481.00
2023-03-19T20:27:33.675Z,478.00
2023-03-19T20:28:33.658Z,479.00
2023-03-19T20:29:33.648Z,481.00
2023-03-19T20:30:33.649Z,483.00
2023-03-19T20:31:33.696Z,483.00
2023-03-19T20:32:33.772Z,482.00
2023-03-19T20:33:33.649Z,480.00
2023-03-19T20:34:39.301Z,480.00
2023-03-19T20:35:34.940Z,481.00
2023-03-19T20:36:33.637Z,480.00
2023-03-19T20:37:33.632Z,478.00
2023-03-19T20:38:33.628Z,478.00
2023-03-19T20:39:33.616Z,476.00
2023-03-19T20:40:33.644Z,476.00
2023-03-19T20:41:33.610Z,475.00
2023-03-19T20:42:33.611Z,475.00
2023-03-19T20:43:33.625Z,473.00
2023-03-19T20:44:33.595Z,473.00
2023-03-19T20:45:33.869Z,472.00
2023-03-19T20:46:33.588Z,473.00
2023-03-19T20:47:33.572Z,471.00
2023-03-19T20:48:33.580Z,471.00
2023-03-19T20:49:33.568Z,470.00
2023-03-19T20:50:33.604Z,466.00
2023-03-19T20:51:33.556Z,465.00
2023-03-19T20:52:33.539Z,464.00
2023-03-19T20:53:33.531Z,462.00
2023-03-19T20:54:33.538Z,463.00
2023-03-19T20:55:33.937Z,464.00
2023-03-19T20:56:33.527Z,462.00
2023-03-19T20:57:33.500Z,461.00
2023-03-19T20:58:33.521Z,462.00
2023-03-19T20:59:33.500Z,463.00
2023-03-19T21:00:33.482Z,466.00
2023-03-19T21:01:33.502Z,466.00
2023-03-19T21:02:33.492Z,465.00
2023-03-19T21:03:33.466Z,466.00
2023-03-19T21:04:33.461Z,467.00
2023-03-19T21:05:33.656Z,470.00
2023-03-19T21:06:49.841Z,470.00
2023-03-19T21:07:34.494Z,469.00
2023-03-19T21:08:33.460Z,468.00
2023-03-19T21:09:33.441Z,468.00
2023-03-19T21:10:33.443Z,468.00
2023-03-19T21:11:33.431Z,469.00
2023-03-19T21:12:33.509Z,467.00
2023-03-19T21:13:33.418Z,467.00
2023-03-19T21:14:33.409Z,468.00
2023-03-19T21:15:33.556Z,464.00
2023-03-19T21:16:33.447Z,465.00
2023-03-19T21:17:33.432Z,464.00
2023-03-19T21:18:33.388Z,466.00
2023-03-19T21:19:33.380Z,466.00
2023-03-19T21:20:33.450Z,466.00
2023-03-19T21:21:33.358Z,467.00
2023-03-19T21:22:33.367Z,468.00
2023-03-19T21:23:33.426Z,468.00
2023-03-19T21:24:33.348Z,468.00
2023-03-19T21:25:33.636Z,469.00
2023-03-19T21:26:33.338Z,469.00
2023-03-19T21:27:33.324Z,466.00
2023-03-19T21:28:33.317Z,468.00
2023-03-19T21:29:33.312Z,468.00
2023-03-19T21:30:33.302Z,469.00
2023-03-19T21:31:33.338Z,469.00
2023-03-19T21:32:33.341Z,468.00
2023-03-19T21:33:33.290Z,468.00
2023-03-19T21:34:33.275Z,470.00
2023-03-19T21:36:33.292Z,471.00
2023-03-19T21:37:33.297Z,469.00
2023-03-19T21:38:33.360Z,470.00
2023-03-19T21:39:33.299Z,468.00
2023-03-19T21:40:33.301Z,467.00
2023-03-19T21:41:33.344Z,465.00
2023-03-19T21:42:33.295Z,464.00
2023-03-19T21:43:33.302Z,463.00
2023-03-19T21:44:33.316Z,464.00
2023-03-19T21:45:33.715Z,466.00
2023-03-19T21:46:33.377Z,465.00
2023-03-19T21:47:33.333Z,465.00
2023-03-19T21:48:33.336Z,464.00
2023-03-19T21:49:33.393Z,460.00
2023-03-19T21:50:33.352Z,459.00
2023-03-19T21:51:33.380Z,460.00
2023-03-19T21:52:45.754Z,462.00
2023-03-19T21:53:34.353Z,463.00
2023-03-19T21:54:33.354Z,462.00
2023-03-19T21:55:33.595Z,463.00
2023-03-19T21:56:33.341Z,462.00
2023-03-19T21:57:33.334Z,458.00
2023-03-19T21:58:33.324Z,460.00
2023-03-19T21:59:33.319Z,460.00
2023-03-19T22:00:33.368Z,459.00
2023-03-19T22:01:33.305Z,460.00
2023-03-19T22:02:33.305Z,463.00
2023-03-19T22:03:33.292Z,463.00
2023-03-19T22:04:33.279Z,466.00
2023-03-19T22:05:33.551Z,466.00
2023-03-19T22:06:33.273Z,465.00
2023-03-19T22:07:33.269Z,465.00
2023-03-19T22:08:33.269Z,464.00
2023-03-19T22:09:33.254Z,463.00
2023-03-19T22:10:33.245Z,461.00
2023-03-19T22:11:33.235Z,462.00
2023-03-19T22:12:33.227Z,460.00
2023-03-19T22:13:33.234Z,460.00
2023-03-19T22:14:33.226Z,459.00
2023-03-19T22:15:33.547Z,461.00
2023-03-19T22:16:33.259Z,461.00
2023-03-19T22:17:33.202Z,459.00
2023-03-19T22:18:33.272Z,459.00
2023-03-19T22:19:33.191Z,460.00
2023-03-19T22:20:33.189Z,459.00
2023-03-19T22:22:33.179Z,458.00
2023-03-19T22:24:33.162Z,459.00
2023-03-19T22:25:33.296Z,458.00
2023-03-19T22:26:33.201Z,458.00
2023-03-19T22:27:33.202Z,458.00
2023-03-19T22:28:33.217Z,458.00
2023-03-19T22:29:33.230Z,457.00
2023-03-19T22:30:33.327Z,458.00
2023-03-19T22:31:33.394Z,458.00
2023-03-19T22:32:33.433Z,457.00
2023-03-19T22:33:33.423Z,455.00
2023-03-19T22:34:33.355Z,455.00
2023-03-19T22:35:33.653Z,457.00
2023-03-19T22:36:33.459Z,456.00
2023-03-19T22:37:33.471Z,455.00
2023-03-19T22:38:33.491Z,458.00
2023-03-19T22:39:33.506Z,460.00
2023-03-19T22:40:33.519Z,464.00
2023-03-19T22:41:33.530Z,461.00
2023-03-19T22:42:33.611Z,461.00
2023-03-19T22:43:33.613Z,458.00
2023-03-19T22:44:33.621Z,459.00
2023-03-19T22:45:33.890Z,457.00
2023-03-19T22:46:33.656Z,456.00
2023-03-19T22:47:33.663Z,460.00
2023-03-19T22:48:33.692Z,460.00
2023-03-19T22:49:33.691Z,461.00
2023-03-19T22:50:33.721Z,462.00
2023-03-19T22:51:33.802Z,464.00
2023-03-19T22:52:33.752Z,463.00
2023-03-19T22:53:33.758Z,464.00
2023-03-19T22:54:33.768Z,463.00
2023-03-19T22:55:36.567Z,462.00
2023-03-19T22:56:33.796Z,463.00
2023-03-19T22:57:33.810Z,467.00
2023-03-19T22:58:33.786Z,465.00
2023-03-19T22:59:33.776Z,464.00
2023-03-19T23:00:33.776Z,466.00
2023-03-19T23:01:33.809Z,467.00
2023-03-19T23:02:33.750Z,465.00
2023-03-19T23:03:33.752Z,463.00
2023-03-19T23:04:33.792Z,462.00
2023-03-19T23:05:34.153Z,463.00
2023-03-19T23:06:33.877Z,463.00
2023-03-19T23:07:33.727Z,459.00
2023-03-19T23:08:33.726Z,460.00
2023-03-19T23:09:33.725Z,462.00
2023-03-19T23:10:33.708Z,461.00
2023-03-19T23:11:33.711Z,460.00
2023-03-19T23:12:33.694Z,456.00
2023-03-19T23:13:33.684Z,456.00
2023-03-19T23:14:33.697Z,457.00
2023-03-19T23:15:33.927Z,456.00
2023-03-19T23:16:33.704Z,456.00
2023-03-19T23:17:34.366Z,456.00
2023-03-19T23:18:33.645Z,456.00
2023-03-19T23:19:33.662Z,458.00
2023-03-19T23:20:33.639Z,460.00
2023-03-19T23:21:33.643Z,459.00
2023-03-19T23:22:33.645Z,459.00
2023-03-19T23:23:34.381Z,460.00
2023-03-19T23:24:33.842Z,461.00
2023-03-19T23:25:33.999Z,463.00
2023-03-19T23:26:33.661Z,463.00
2023-03-19T23:27:33.606Z,463.00
2023-03-19T23:28:33.603Z,461.00
2023-03-19T23:29:33.597Z,461.00
2023-03-19T23:30:33.669Z,460.00
2023-03-19T23:31:33.575Z,461.00
2023-03-19T23:32:33.652Z,464.00
2023-03-19T23:33:33.563Z,464.00
2023-03-19T23:34:42.595Z,461.00
2023-03-19T23:35:34.899Z,461.00
2023-03-19T23:36:33.542Z,463.00
2023-03-19T23:37:33.556Z,463.00
2023-03-19T23:38:33.535Z,461.00
2023-03-19T23:39:33.546Z,463.00
2023-03-19T23:40:33.532Z,462.00
2023-03-19T23:41:33.513Z,459.00
2023-03-19T23:42:33.520Z,456.00
2023-03-19T23:43:33.515Z,456.00
2023-03-19T23:44:33.496Z,455.00
2023-03-19T23:45:33.819Z,455.00
2023-03-19T23:46:33.637Z,458.00
2023-03-19T23:47:33.471Z,458.00
2023-03-19T23:48:33.473Z,459.00
2023-03-19T23:49:33.472Z,458.00
2023-03-19T23:50:33.455Z,460.00
2023-03-19T23:51:33.450Z,461.00
2023-03-19T23:52:33.443Z,465.00
2023-03-19T23:53:33.431Z,460.00
2023-03-19T23:54:34.407Z,460.00
2023-03-19T23:55:33.773Z,460.00
2023-03-19T23:56:33.423Z,459.00
2023-03-19T23:57:33.429Z,458.00
2023-03-19T23:58:33.403Z,460.00
2023-03-19T23:59:33.417Z,462.00
